Portland, Oregon
Traffic Map
Current Weather Conditions
Portland, Oregon
Broken Clouds
Broken Clouds
17°
Feels Like: 17°
Wind Chill: 17° Ceiling: 2800
Heat Index: 17° Visibility: 10mi
Dew Point: Wind: 7mph
Humidity: 60% Direction: ° ()
Pressure: 30.25in Gusts: 0mph
Raw Report DataKPDX 301653Z VRB06KT 10SM BKN028 17/09 A3025 RMK AO2 SLP242 T01720094
Traffic Incident Summary
Active as of:
Severity:
Category:
InformationThere was an issue retrieving the traffic information for this location. Please try a different location or try again shortly.
Advertisements
Track Severe Weather on mobile